createdAt,value
2018-12-07T00:00:33.763Z,28.57
2018-12-07T00:03:02.535Z,33.70
2018-12-07T00:05:31.339Z,28.63
2018-12-07T00:08:00.144Z,32.90
2018-12-07T00:10:28.847Z,27.17
2018-12-07T00:12:57.593Z,30.33
2018-12-07T00:15:26.413Z,29.60
2018-12-07T00:17:55.153Z,26.00
2018-12-07T00:20:23.934Z,30.23
2018-12-07T00:22:52.718Z,25.80
2018-12-07T00:25:21.458Z,25.90
2018-12-07T00:27:50.371Z,26.50
2018-12-07T00:30:19.137Z,24.73
2018-12-07T00:32:47.961Z,26.97
2018-12-07T00:35:16.747Z,23.70
2018-12-07T00:37:45.506Z,21.13
2018-12-07T00:40:14.239Z,24.43
2018-12-07T00:42:43.017Z,22.27
2018-12-07T00:45:11.826Z,27.93
2018-12-07T00:47:40.591Z,30.00
2018-12-07T00:50:09.344Z,25.03
2018-12-07T00:52:38.119Z,22.97
2018-12-07T00:55:44.401Z,22.27
2018-12-07T00:58:13.139Z,24.97
2018-12-07T01:00:41.908Z,24.17
2018-12-07T01:03:10.685Z,23.97
2018-12-07T01:05:39.421Z,23.00
2018-12-07T01:08:08.202Z,25.97
2018-12-07T01:10:36.991Z,20.03
2018-12-07T01:13:05.686Z,25.17
2018-12-07T01:15:34.490Z,21.53
2018-12-07T01:18:03.221Z,21.43
2018-12-07T01:20:32.008Z,22.90
2018-12-07T01:23:00.808Z,23.87
2018-12-07T01:25:29.540Z,20.23
2018-12-07T01:27:58.198Z,19.73
2018-12-07T01:30:27.224Z,23.77
2018-12-07T01:32:55.958Z,21.23
2018-12-07T01:35:24.790Z,21.70
2018-12-07T01:37:53.784Z,22.93
2018-12-07T01:40:22.576Z,23.17
2018-12-07T01:42:51.326Z,19.37
2018-12-07T01:45:20.148Z,19.70
2018-12-07T01:47:49.011Z,18.37
2018-12-07T01:50:17.798Z,19.73
2018-12-07T01:52:46.598Z,15.77
2018-12-07T01:55:15.709Z,17.90
2018-12-07T01:57:44.640Z,17.30
2018-12-07T02:00:13.568Z,22.53
2018-12-07T02:02:42.362Z,18.10
2018-12-07T02:05:11.110Z,18.43
2018-12-07T02:07:39.910Z,16.70
2018-12-07T02:10:08.726Z,18.43
2018-12-07T02:12:37.540Z,17.57
2018-12-07T02:15:06.726Z,18.70
2018-12-07T02:17:35.532Z,19.73
2018-12-07T02:20:04.980Z,19.57
2018-12-07T02:22:33.769Z,19.20
2018-12-07T02:25:02.494Z,17.47
2018-12-07T02:27:35.539Z,19.60
2018-12-07T02:30:05.306Z,19.67
2018-12-07T02:32:34.032Z,22.53
2018-12-07T02:35:02.843Z,16.80
2018-12-07T02:37:31.578Z,16.57
2018-12-07T02:40:00.328Z,22.23
2018-12-07T02:42:29.115Z,20.23
2018-12-07T02:44:57.902Z,19.87
2018-12-07T02:47:26.691Z,19.37
2018-12-07T02:49:55.413Z,21.67
2018-12-07T02:52:24.145Z,21.43
2018-12-07T02:54:52.934Z,16.50
2018-12-07T02:57:21.741Z,21.07
2018-12-07T02:59:50.473Z,19.63
2018-12-07T03:02:19.323Z,22.87
2018-12-07T03:04:48.059Z,22.93
2018-12-07T03:07:16.811Z,22.47
2018-12-07T03:09:45.486Z,23.67
2018-12-07T03:12:14.275Z,19.10
2018-12-07T03:14:43.024Z,21.93
2018-12-07T03:17:11.825Z,21.43
2018-12-07T03:19:40.607Z,27.10
2018-12-07T03:22:09.553Z,26.37
2018-12-07T03:24:38.339Z,19.77
2018-12-07T03:27:07.069Z,20.87
2018-12-07T03:29:35.855Z,22.57
2018-12-07T03:32:04.679Z,25.73
2018-12-07T03:34:33.402Z,24.33
2018-12-07T03:37:02.152Z,27.57
2018-12-07T03:39:30.963Z,17.80
2018-12-07T03:41:59.781Z,24.43
2018-12-07T03:44:28.517Z,22.70
2018-12-07T03:46:57.327Z,27.47
2018-12-07T03:49:26.118Z,24.10
2018-12-07T03:51:54.773Z,22.30
2018-12-07T03:54:23.577Z,24.63
2018-12-07T03:56:52.313Z,25.77
2018-12-07T03:59:21.038Z,25.07
2018-12-07T04:01:49.838Z,24.60
2018-12-07T04:04:18.781Z,25.23
2018-12-07T04:06:47.449Z,25.37
2018-12-07T04:09:16.168Z,28.03
2018-12-07T04:11:44.978Z,25.53
2018-12-07T04:14:13.754Z,27.60
2018-12-07T04:16:42.488Z,31.83
2018-12-07T04:19:11.353Z,28.63
2018-12-07T04:21:40.149Z,32.47
2018-12-07T04:24:09.015Z,27.50
2018-12-07T04:26:37.808Z,27.90
2018-12-07T04:29:09.231Z,27.20
2018-12-07T04:31:38.004Z,30.23
2018-12-07T04:34:06.826Z,27.17
2018-12-07T04:36:35.469Z,32.07
2018-12-07T04:39:06.214Z,29.27
2018-12-07T04:41:34.981Z,33.13
2018-12-07T04:44:03.769Z,33.13
2018-12-07T04:46:32.676Z,34.23
2018-12-07T04:49:01.411Z,30.83
2018-12-07T04:51:30.209Z,30.83
2018-12-07T04:53:58.942Z,32.87
2018-12-07T04:56:27.852Z,34.97
2018-12-07T04:58:56.583Z,34.87
2018-12-07T05:01:25.349Z,31.57
2018-12-07T05:03:54.201Z,30.17
2018-12-07T05:06:22.988Z,32.73
2018-12-07T05:08:51.714Z,37.53
2018-12-07T05:11:20.382Z,33.00
2018-12-07T05:13:49.183Z,35.03
2018-12-07T05:16:17.975Z,32.37
2018-12-07T05:18:46.703Z,37.33
2018-12-07T05:21:15.582Z,39.07
2018-12-07T05:23:44.358Z,32.30
2018-12-07T05:26:13.142Z,37.03
2018-12-07T05:28:41.811Z,38.10
2018-12-07T05:31:10.541Z,37.57
2018-12-07T05:33:39.399Z,33.37
2018-12-07T05:36:08.191Z,41.90
2018-12-07T05:38:36.961Z,42.43
2018-12-07T05:41:05.737Z,43.57
2018-12-07T05:43:34.471Z,36.33
2018-12-07T05:46:03.218Z,44.80
2018-12-07T05:48:32.125Z,40.33
2018-12-07T05:51:00.925Z,43.03
2018-12-07T05:53:29.575Z,44.00
2018-12-07T05:55:58.260Z,43.07
2018-12-07T05:58:26.995Z,44.40
2018-12-07T06:00:55.891Z,52.00
2018-12-07T06:03:24.625Z,46.10
2018-12-07T06:05:53.347Z,43.73
2018-12-07T06:08:22.089Z,44.33
2018-12-07T06:10:50.949Z,44.93
2018-12-07T06:13:19.671Z,52.77
2018-12-07T06:15:48.411Z,42.63
2018-12-07T06:18:17.427Z,41.70
2018-12-07T06:20:46.325Z,42.90
2018-12-07T06:23:15.096Z,50.60
2018-12-07T06:25:43.860Z,42.13
2018-12-07T06:28:12.581Z,42.70
2018-12-07T06:30:41.229Z,39.83
2018-12-07T06:33:09.961Z,44.67
2018-12-07T06:35:38.700Z,51.20
2018-12-07T06:38:07.502Z,48.37
2018-12-07T06:40:36.223Z,43.57
2018-12-07T06:43:04.990Z,42.27
2018-12-07T06:45:35.196Z,42.13
2018-12-07T06:48:04.223Z,38.67
2018-12-07T06:50:33.215Z,54.60
2018-12-07T06:53:01.937Z,47.27
2018-12-07T06:55:30.743Z,51.30
2018-12-07T06:57:59.539Z,52.27
2018-12-07T07:00:28.353Z,37.33
2018-12-07T07:02:57.175Z,38.70
2018-12-07T07:05:26.141Z,46.30
2018-12-07T07:07:54.950Z,46.27
2018-12-07T07:10:23.740Z,37.90
2018-12-07T07:12:52.439Z,50.13
2018-12-07T07:15:21.284Z,45.73
2018-12-07T07:17:49.939Z,38.13
2018-12-07T07:20:18.808Z,33.40
2018-12-07T07:22:47.598Z,50.73
2018-12-07T07:25:16.279Z,59.20
2018-12-07T07:27:45.015Z,46.50
2018-12-07T07:30:13.856Z,52.80
2018-12-07T07:32:42.713Z,47.33
2018-12-07T07:35:12.179Z,54.53
2018-12-07T07:37:41.293Z,57.70
2018-12-07T07:40:10.306Z,42.67
2018-12-07T07:42:39.029Z,76.67
2018-12-07T07:45:07.849Z,38.10
2018-12-07T07:47:36.608Z,35.30
2018-12-07T07:50:06.903Z,38.37
2018-12-07T07:52:35.681Z,36.60
2018-12-07T07:55:05.131Z,37.67
2018-12-07T07:57:33.970Z,33.73
2018-12-07T08:00:02.783Z,55.13
2018-12-07T08:02:31.510Z,64.57
2018-12-07T08:05:00.257Z,99.90
2018-12-07T08:07:28.988Z,75.93
2018-12-07T08:09:57.809Z,29.47
2018-12-07T08:12:26.597Z,50.40
2018-12-07T08:14:55.326Z,38.93
2018-12-07T08:17:24.306Z,22.37
2018-12-07T08:19:53.104Z,22.90
2018-12-07T08:22:21.952Z,28.90
2018-12-07T08:24:50.754Z,23.87
2018-12-07T08:27:19.889Z,22.57
2018-12-07T08:29:48.679Z,18.30
2018-12-07T08:32:17.838Z,25.93
2018-12-07T08:34:46.621Z,19.83
2018-12-07T08:37:15.398Z,19.73
2018-12-07T08:39:44.210Z,19.67
2018-12-07T08:42:13.053Z,18.97
2018-12-07T08:44:41.858Z,17.67
2018-12-07T08:47:10.592Z,19.30
2018-12-07T08:49:44.779Z,16.87
2018-12-07T08:52:13.510Z,24.73
2018-12-07T08:54:42.374Z,24.20
2018-12-07T08:57:11.108Z,19.50
2018-12-07T08:59:39.932Z,16.43
2018-12-07T09:02:08.748Z,27.07
2018-12-07T09:04:37.608Z,18.27
2018-12-07T09:07:06.530Z,16.23
2018-12-07T09:09:35.360Z,17.00
2018-12-07T09:12:04.186Z,17.60
2018-12-07T09:14:33.039Z,16.63
2018-12-07T09:17:02.110Z,19.10
2018-12-07T09:19:31.010Z,16.13
2018-12-07T09:21:59.781Z,13.17
2018-12-07T09:24:28.606Z,11.93
2018-12-07T09:26:57.662Z,11.60
2018-12-07T09:29:26.346Z,14.20
2018-12-07T09:31:55.499Z,13.10
2018-12-07T09:34:24.489Z,13.77
2018-12-07T09:36:53.151Z,13.47
2018-12-07T09:39:22.064Z,14.37
2018-12-07T09:41:50.855Z,17.67
2018-12-07T09:44:19.534Z,12.87
2018-12-07T09:46:48.284Z,14.90
2018-12-07T09:49:17.155Z,14.17
2018-12-07T09:51:45.937Z,13.53
2018-12-07T09:54:14.781Z,12.13
2018-12-07T09:56:43.588Z,11.00
2018-12-07T09:59:12.385Z,9.10
2018-12-07T10:01:41.033Z,9.70
2018-12-07T10:04:09.829Z,9.43
2018-12-07T10:06:38.591Z,10.20
2018-12-07T10:09:08.320Z,10.70
2018-12-07T10:11:37.045Z,8.53
2018-12-07T10:14:05.788Z,9.13
2018-12-07T10:16:34.592Z,7.67
2018-12-07T10:19:03.371Z,10.30
2018-12-07T10:21:32.220Z,10.87
2018-12-07T10:24:00.948Z,7.70
2018-12-07T10:26:29.742Z,9.20
2018-12-07T10:28:58.490Z,7.67
2018-12-07T10:31:27.290Z,9.53
2018-12-07T10:33:56.276Z,8.00
2018-12-07T10:36:24.978Z,9.90
2018-12-07T10:38:53.693Z,8.30
2018-12-07T10:41:22.494Z,8.50
2018-12-07T10:43:51.384Z,9.23
2018-12-07T10:46:23.280Z,9.13
2018-12-07T10:48:52.097Z,8.90
2018-12-07T10:51:20.921Z,6.47
2018-12-07T10:53:49.775Z,8.50
2018-12-07T10:56:18.479Z,10.30
2018-12-07T10:58:47.491Z,6.70
2018-12-07T11:01:21.715Z,8.20
2018-12-07T11:03:56.077Z,5.93
2018-12-07T11:06:30.411Z,5.67
2018-12-07T11:09:06.391Z,5.50
2018-12-07T11:11:45.431Z,5.43
2018-12-07T11:14:16.217Z,5.53
2018-12-07T11:17:49.163Z,5.03
2018-12-07T11:20:23.337Z,5.43
2018-12-07T11:22:57.738Z,4.43
2018-12-07T11:25:32.099Z,4.83
2018-12-07T11:28:06.223Z,6.73
2018-12-07T11:30:39.229Z,5.23
2018-12-07T11:33:13.622Z,11.70
2018-12-07T11:35:43.228Z,6.17
2018-12-07T11:38:12.097Z,4.70
2018-12-07T11:40:40.865Z,4.87
2018-12-07T11:43:09.590Z,5.37
2018-12-07T11:45:38.478Z,3.73
2018-12-07T11:48:08.280Z,6.20
2018-12-07T11:50:37.826Z,4.17
2018-12-07T11:53:06.636Z,11.60
2018-12-07T11:55:35.668Z,6.00
2018-12-07T11:58:04.518Z,6.50
2018-12-07T12:00:33.462Z,4.43
2018-12-07T12:03:02.193Z,6.07
2018-12-07T12:05:30.882Z,8.50
2018-12-07T12:07:59.540Z,4.60
2018-12-07T12:10:28.403Z,3.63
2018-12-07T12:12:57.136Z,8.53
2018-12-07T12:15:25.873Z,6.40
2018-12-07T12:17:54.671Z,7.73
2018-12-07T12:20:23.393Z,7.07
2018-12-07T12:22:52.758Z,3.87
2018-12-07T12:25:21.528Z,3.77
2018-12-07T12:27:50.179Z,5.17
2018-12-07T12:30:18.989Z,5.73
2018-12-07T13:00:59.026Z,6.33
2018-12-07T13:03:27.894Z,4.53
2018-12-07T13:05:56.647Z,2.73
2018-12-07T13:08:25.566Z,2.87
2018-12-07T13:10:54.296Z,3.57
2018-12-07T13:13:23.009Z,4.07
2018-12-07T13:15:51.736Z,3.43
2018-12-07T13:18:20.682Z,6.03
2018-12-07T13:20:49.433Z,4.20
2018-12-07T13:23:18.144Z,6.70
2018-12-07T13:25:46.938Z,6.13
2018-12-07T13:28:15.724Z,5.70
2018-12-07T13:30:44.497Z,12.57
2018-12-07T13:33:13.259Z,8.43
2018-12-07T13:35:42.049Z,8.07
2018-12-07T13:38:10.881Z,5.47
2018-12-07T13:40:39.676Z,5.40
2018-12-07T13:43:08.647Z,5.73
2018-12-07T13:45:38.134Z,9.57
2018-12-07T13:48:07.358Z,7.67
2018-12-07T13:50:42.570Z,4.67
2018-12-07T13:53:11.690Z,7.83
2018-12-07T13:55:40.677Z,9.07
2018-12-07T13:58:09.633Z,5.87
2018-12-07T14:00:38.826Z,8.90
2018-12-07T14:03:07.742Z,5.03
2018-12-07T14:05:36.732Z,5.97
2018-12-07T14:08:05.731Z,7.77
2018-12-07T14:10:34.704Z,8.60
2018-12-07T14:13:03.791Z,6.03
2018-12-07T14:15:32.677Z,5.73
2018-12-07T14:18:01.462Z,8.47
2018-12-07T14:20:30.179Z,6.97
2018-12-07T14:22:59.095Z,7.27
2018-12-07T14:25:28.883Z,5.57
2018-12-07T14:27:58.154Z,5.23
2018-12-07T14:30:27.105Z,5.80
2018-12-07T14:32:56.041Z,6.40
2018-12-07T14:35:24.908Z,7.60
2018-12-07T14:37:54.008Z,5.77
2018-12-07T14:40:22.854Z,8.07
2018-12-07T14:42:51.806Z,6.13
2018-12-07T14:45:20.616Z,7.63
2018-12-07T14:47:49.517Z,9.00
2018-12-07T14:50:18.391Z,5.63
2018-12-07T14:52:47.121Z,9.00
2018-12-07T14:55:16.008Z,11.40
2018-12-07T14:57:44.974Z,8.83
2018-12-07T15:00:14.454Z,7.73
2018-12-07T15:02:43.379Z,8.53
2018-12-07T15:05:12.888Z,8.83
2018-12-07T15:07:41.940Z,8.20
2018-12-07T15:10:11.011Z,8.97
2018-12-07T15:12:39.844Z,9.73
2018-12-07T15:15:08.912Z,8.63
2018-12-07T15:17:37.857Z,8.43
2018-12-07T15:20:09.053Z,8.83
2018-12-07T15:22:37.890Z,11.00
2018-12-07T15:25:07.457Z,10.70
2018-12-07T15:27:36.411Z,10.47
2018-12-07T15:30:07.158Z,8.70
2018-12-07T15:32:35.909Z,10.43
2018-12-07T15:35:06.461Z,11.97
2018-12-07T15:37:35.313Z,7.13
2018-12-07T15:40:05.470Z,7.67
2018-12-07T15:42:34.468Z,11.80
2018-12-07T15:45:03.891Z,7.17
2018-12-07T15:47:32.881Z,8.97
2018-12-07T15:50:01.981Z,7.40
2018-12-07T15:52:31.049Z,6.60
2018-12-07T15:55:00.161Z,6.87
2018-12-07T15:57:29.065Z,7.30
2018-12-07T15:59:58.403Z,8.60
2018-12-07T16:02:27.389Z,7.30
2018-12-07T16:04:57.676Z,9.20
2018-12-07T16:07:26.509Z,8.50
2018-12-07T16:09:55.776Z,8.67
2018-12-07T16:12:24.851Z,8.13
2018-12-07T16:14:54.039Z,7.07
2018-12-07T16:17:23.181Z,8.67
2018-12-07T16:19:52.099Z,11.03
2018-12-07T16:22:21.165Z,10.50
2018-12-07T16:24:49.993Z,6.53
2018-12-07T16:27:18.714Z,9.73
2018-12-07T16:29:47.783Z,7.57
2018-12-07T16:32:17.769Z,6.77
2018-12-07T16:34:47.311Z,7.40
2018-12-07T16:37:16.176Z,7.07
2018-12-07T16:39:45.296Z,9.73
2018-12-07T16:42:14.306Z,10.57
2018-12-07T16:44:43.163Z,8.77
2018-12-07T16:47:12.122Z,5.77
2018-12-07T16:49:41.155Z,10.47
2018-12-07T16:52:10.243Z,7.37
2018-12-07T16:54:39.033Z,7.63
2018-12-07T16:57:07.751Z,6.80
2018-12-07T16:59:36.897Z,10.10
2018-12-07T17:02:06.250Z,9.23
2018-12-07T17:04:35.109Z,8.87
2018-12-07T17:07:04.175Z,9.10
2018-12-07T17:09:33.505Z,8.93
2018-12-07T17:12:02.393Z,12.00
2018-12-07T17:14:31.669Z,11.20
2018-12-07T17:17:00.571Z,8.67
2018-12-07T17:19:29.669Z,9.83
2018-12-07T17:21:59.187Z,8.47
2018-12-07T17:24:28.225Z,8.93
2018-12-07T17:26:57.071Z,9.20
2018-12-07T17:29:25.910Z,7.70
2018-12-07T17:31:55.179Z,9.97
2018-12-07T17:34:24.127Z,7.60
2018-12-07T17:36:53.272Z,8.67
2018-12-07T17:39:22.350Z,12.27
2018-12-07T17:41:57.733Z,17.27
2018-12-07T17:44:26.613Z,10.07
2018-12-07T17:46:55.604Z,10.47
2018-12-07T17:49:24.624Z,8.40
2018-12-07T17:51:53.656Z,13.23
2018-12-07T17:54:22.527Z,11.67
2018-12-07T17:56:51.503Z,11.37
2018-12-07T17:59:20.514Z,11.20
2018-12-07T18:01:49.412Z,11.33
2018-12-07T18:04:18.189Z,11.60
2018-12-07T18:06:47.091Z,12.27
2018-12-07T18:09:16.040Z,11.70
2018-12-07T18:11:44.869Z,12.43
2018-12-07T18:14:14.170Z,13.37
2018-12-07T18:16:43.226Z,14.63
2018-12-07T18:19:12.221Z,13.07
2018-12-07T18:21:41.282Z,10.73
2018-12-07T18:24:10.115Z,9.40
2018-12-07T18:26:39.058Z,11.40
2018-12-07T18:29:08.009Z,10.73
2018-12-07T18:31:36.949Z,11.37
2018-12-07T18:34:06.004Z,10.17
2018-12-07T18:36:35.473Z,11.87
2018-12-07T18:39:07.115Z,13.07
2018-12-07T18:41:36.057Z,11.60
2018-12-07T18:44:05.518Z,11.80
2018-12-07T18:46:34.552Z,10.20
2018-12-07T18:49:03.885Z,12.43
2018-12-07T18:51:32.920Z,11.63
2018-12-07T18:54:02.357Z,7.93
2018-12-07T18:56:31.596Z,7.97
2018-12-07T18:59:00.731Z,12.60
2018-12-07T19:01:29.831Z,8.77
2018-12-07T19:03:58.782Z,9.17
2018-12-07T19:06:27.704Z,11.63
2018-12-07T19:08:57.476Z,10.20
2018-12-07T19:11:26.416Z,9.93
2018-12-07T19:13:55.361Z,7.97
2018-12-07T19:16:24.119Z,10.03
2018-12-07T19:18:53.835Z,8.37
2018-12-07T19:21:22.881Z,6.97
2018-12-07T19:23:52.000Z,8.90
2018-12-07T19:26:20.986Z,8.47
2018-12-07T19:28:49.819Z,10.10
2018-12-07T19:31:18.627Z,10.00
2018-12-07T19:33:47.708Z,8.97
2018-12-07T19:36:16.489Z,8.77
2018-12-07T19:38:45.293Z,8.63
2018-12-07T19:41:14.218Z,7.63
2018-12-07T19:43:43.127Z,8.17
2018-12-07T19:46:12.102Z,11.70
2018-12-07T19:48:41.160Z,9.33
2018-12-07T19:51:10.355Z,7.77
2018-12-07T19:53:39.333Z,6.63
2018-12-07T19:56:08.238Z,10.57
2018-12-07T19:58:37.517Z,7.53
2018-12-07T20:01:06.569Z,8.33
2018-12-07T20:03:35.387Z,6.27
2018-12-07T20:06:04.565Z,6.70
2018-12-07T20:08:33.816Z,7.57
2018-12-07T20:11:02.913Z,8.43
2018-12-07T20:13:31.816Z,8.37
2018-12-07T20:16:00.650Z,5.57
2018-12-07T20:18:29.592Z,7.43
2018-12-07T20:20:58.636Z,8.13
2018-12-07T20:23:27.627Z,6.57
2018-12-07T20:25:56.608Z,5.63
2018-12-07T20:28:25.632Z,7.27
2018-12-07T20:30:54.787Z,9.10
2018-12-07T20:33:23.858Z,6.57
2018-12-07T20:35:53.073Z,7.07
2018-12-07T20:38:22.374Z,6.63
2018-12-07T20:40:51.282Z,7.27
2018-12-07T20:43:20.324Z,5.53
2018-12-07T20:45:49.223Z,4.17
2018-12-07T20:48:17.961Z,6.00
2018-12-07T20:50:46.763Z,4.83
2018-12-07T20:53:15.694Z,4.03
2018-12-07T20:55:44.793Z,5.93
2018-12-07T20:58:13.638Z,4.37
2018-12-07T21:00:42.545Z,4.17
2018-12-07T21:03:11.443Z,7.03
2018-12-07T21:07:15.782Z,3.90
2018-12-07T21:09:44.624Z,3.73
2018-12-07T21:15:15.581Z,4.10
2018-12-07T21:17:44.300Z,3.00
2018-12-07T21:20:23.121Z,3.60
2018-12-07T21:22:51.969Z,4.97
2018-12-07T21:25:21.079Z,2.20
2018-12-07T21:27:49.838Z,2.60
2018-12-07T21:30:56.409Z,2.27
2018-12-07T21:33:54.233Z,2.70
2018-12-07T21:36:42.636Z,3.17
2018-12-07T21:39:17.300Z,6.07
2018-12-07T21:41:46.066Z,2.73
2018-12-07T21:44:14.889Z,4.03
2018-12-07T21:46:44.139Z,3.07
2018-12-07T21:49:13.007Z,2.43
2018-12-07T21:51:56.130Z,4.33
2018-12-07T21:54:25.326Z,2.70
2018-12-07T21:56:54.678Z,3.30
2018-12-07T21:59:23.731Z,2.50
2018-12-07T22:01:52.915Z,3.87
2018-12-07T22:04:21.863Z,3.33
2018-12-07T22:06:51.406Z,2.50
2018-12-07T22:09:20.714Z,2.10
2018-12-07T22:11:49.596Z,2.00
2018-12-07T22:14:18.451Z,2.27
2018-12-07T22:16:47.163Z,2.33
2018-12-07T22:19:15.974Z,1.83
2018-12-07T22:21:44.724Z,3.23
2018-12-07T22:24:13.557Z,1.60
2018-12-07T22:26:42.233Z,1.47
2018-12-07T22:29:11.417Z,2.93
2018-12-07T22:31:40.158Z,2.43
2018-12-07T22:34:09.140Z,1.80
2018-12-07T22:36:38.245Z,1.77
2018-12-07T22:39:08.877Z,2.00
2018-12-07T22:41:38.026Z,3.67
2018-12-07T22:44:06.835Z,2.70
2018-12-07T22:46:35.708Z,1.67
2018-12-07T22:49:04.868Z,1.30
2018-12-07T22:51:33.732Z,2.10
2018-12-07T22:54:02.558Z,3.17
2018-12-07T22:56:31.563Z,1.37
2018-12-07T22:59:00.326Z,1.20
2018-12-07T23:01:29.150Z,1.40
2018-12-07T23:03:57.921Z,1.33
2018-12-07T23:06:26.772Z,1.70
2018-12-07T23:08:55.758Z,1.27
2018-12-07T23:11:24.552Z,1.10
2018-12-07T23:13:53.286Z,1.00
2018-12-07T23:16:22.240Z,0.90
2018-12-07T23:18:51.092Z,4.20
2018-12-07T23:21:19.878Z,1.30
2018-12-07T23:23:48.565Z,0.80
2018-12-07T23:26:17.490Z,1.93
2018-12-07T23:28:46.234Z,0.70
2018-12-07T23:31:14.914Z,1.40
2018-12-07T23:33:43.814Z,1.03
2018-12-07T23:36:12.562Z,1.00
2018-12-07T23:38:41.226Z,1.27
2018-12-07T23:41:09.978Z,1.03
2018-12-07T23:43:38.734Z,2.10
2018-12-07T23:46:07.534Z,1.37
2018-12-07T23:48:36.443Z,1.93
2018-12-07T23:51:05.284Z,0.80
2018-12-07T23:53:34.046Z,0.70
2018-12-07T23:56:02.828Z,2.20
2018-12-07T23:58:31.580Z,0.80
